createdAt,value
2022-09-28T00:02:10.251Z,99584.97
2022-09-28T00:04:36.857Z,99587.34
2022-09-28T00:07:03.379Z,99590.59
2022-09-28T00:09:29.855Z,99588.75
2022-09-28T00:11:57.417Z,99573.75
2022-09-28T00:14:24.471Z,99580.81
2022-09-28T00:16:51.055Z,99575.09
2022-09-28T00:19:17.920Z,99570.47
2022-09-28T00:21:44.508Z,99571.00
2022-09-28T00:24:18.792Z,99563.94
2022-09-28T00:26:46.860Z,99569.13
2022-09-28T00:29:26.838Z,99569.13
2022-09-28T00:32:02.004Z,99569.94
2022-09-28T00:34:31.870Z,99559.03
2022-09-28T00:36:59.506Z,99559.06
2022-09-28T00:39:27.040Z,99556.34
2022-09-28T00:41:54.660Z,99560.69
2022-09-28T00:44:21.210Z,99555.81
2022-09-28T00:46:49.564Z,99560.75
2022-09-28T00:49:18.953Z,99549.28
2022-09-28T00:51:48.418Z,99555.25
2022-09-28T00:54:16.728Z,99552.28
2022-09-28T00:56:47.578Z,99556.91
2022-09-28T00:59:14.986Z,99552.59
2022-09-28T01:01:41.689Z,99558.28
2022-09-28T01:04:08.606Z,99556.13
2022-09-28T01:06:37.981Z,99552.59
2022-09-28T01:09:08.407Z,99554.19
2022-09-28T01:11:37.687Z,99547.69
2022-09-28T01:14:09.087Z,99550.69
2022-09-28T01:16:44.866Z,99550.69
2022-09-28T01:19:51.278Z,99552.06
2022-09-28T01:22:20.981Z,99548.75
2022-09-28T01:25:01.195Z,99553.91
2022-09-28T01:27:50.660Z,99561.00
2022-09-28T01:30:20.714Z,99557.09
2022-09-28T01:33:24.842Z,99564.50
2022-09-28T01:36:06.101Z,99557.41
2022-09-28T01:38:48.006Z,99566.38
2022-09-28T01:41:17.688Z,99551.34
2022-09-28T01:43:54.485Z,99555.19
2022-09-28T01:46:29.136Z,99557.34
2022-09-28T01:49:05.891Z,99560.06
2022-09-28T01:51:52.184Z,99568.53
2022-09-28T01:54:29.003Z,99557.34
2022-09-28T01:57:03.783Z,99559.50
2022-09-28T01:59:32.780Z,99560.31
2022-09-28T02:02:08.576Z,99559.00
2022-09-28T02:04:47.564Z,99560.63
2022-09-28T02:07:20.458Z,99551.88
2022-09-28T02:09:57.759Z,99551.34
2022-09-28T02:12:34.618Z,99554.06
2022-09-28T02:15:16.927Z,99554.06
2022-09-28T02:17:45.226Z,99548.03
2022-09-28T02:20:13.762Z,99542.59
2022-09-28T02:22:51.432Z,99548.03
2022-09-28T02:25:31.146Z,99549.13
2022-09-28T02:28:02.111Z,99543.69
2022-09-28T02:30:35.386Z,99552.38
2022-09-28T02:33:10.846Z,99552.94
2022-09-28T02:35:39.140Z,99550.72
2022-09-28T02:38:05.729Z,99543.91
2022-09-28T02:40:35.015Z,99550.41
2022-09-28T02:43:31.505Z,99553.44
2022-09-28T02:46:28.971Z,99557.25
2022-09-28T02:49:21.368Z,99553.97
2022-09-28T02:52:07.783Z,99550.72
2022-09-28T02:54:56.291Z,99553.44
2022-09-28T02:57:46.831Z,99556.16
2022-09-28T03:00:23.989Z,99555.88
2022-09-28T03:03:12.126Z,99565.38
2022-09-28T03:06:00.284Z,99558.88
2022-09-28T03:08:35.847Z,99548.81
2022-09-28T03:11:12.670Z,99555.63
2022-09-28T03:13:39.885Z,99550.69
2022-09-28T03:16:18.902Z,99544.69
2022-09-28T03:18:48.329Z,99552.31
2022-09-28T03:21:16.014Z,99558.03
2022-09-28T03:23:43.068Z,99552.28
2022-09-28T03:26:14.489Z,99551.78
2022-09-28T03:28:41.193Z,99550.13
2022-09-28T03:31:11.499Z,99554.75
2022-09-28T03:33:38.212Z,99555.00
2022-09-28T03:36:05.908Z,99553.66
2022-09-28T03:38:32.531Z,99552.00
2022-09-28T03:41:00.286Z,99557.75
2022-09-28T03:43:31.539Z,99559.88
2022-09-28T03:46:01.979Z,99563.19
2022-09-28T03:48:33.157Z,99560.47
2022-09-28T03:51:02.864Z,99552.53
2022-09-28T03:53:29.756Z,99554.44
2022-09-28T03:56:03.344Z,99565.63
2022-09-28T03:58:30.558Z,99558.56
2022-09-28T04:01:03.086Z,99564.25
2022-09-28T04:03:29.668Z,99563.19
2022-09-28T04:05:56.305Z,99565.91
2022-09-28T04:08:22.851Z,99565.06
2022-09-28T04:10:49.403Z,99560.97
2022-09-28T04:13:16.285Z,99559.88
2022-09-28T04:15:43.604Z,99557.97
2022-09-28T04:18:11.618Z,99562.59
2022-09-28T04:21:08.848Z,99560.16
2022-09-28T04:23:40.750Z,99550.88
2022-09-28T04:26:13.211Z,99556.31
2022-09-28T04:29:01.643Z,99559.34
2022-09-28T04:31:45.389Z,99545.44
2022-09-28T04:34:17.214Z,99548.34
2022-09-28T04:36:44.873Z,99549.16
2022-09-28T04:39:15.602Z,99553.78
2022-09-28T04:41:47.912Z,99549.69
2022-09-28T04:44:14.984Z,99551.03
2022-09-28T04:46:41.725Z,99551.03
2022-09-28T04:49:26.844Z,99557.00
2022-09-28T04:51:56.142Z,99562.94
2022-09-28T04:54:22.688Z,99568.88
2022-09-28T04:56:49.302Z,99569.97
2022-09-28T04:59:15.904Z,99560.13
2022-09-28T05:01:44.539Z,99568.06
2022-09-28T05:04:40.067Z,99571.06
2022-09-28T05:07:29.129Z,99573.50
2022-09-28T05:09:57.436Z,99581.94
2022-09-28T05:12:24.378Z,99573.78
2022-09-28T05:14:51.008Z,99571.88
2022-09-28T05:17:18.060Z,99570.78
2022-09-28T05:19:56.391Z,99573.78
2022-09-28T05:22:23.081Z,99580.03
2022-09-28T05:24:49.643Z,99575.66
2022-09-28T05:27:16.272Z,99580.28
2022-09-28T05:29:46.183Z,99577.25
2022-09-28T05:32:31.369Z,99571.25
2022-09-28T05:35:18.264Z,99569.88
2022-09-28T05:37:47.180Z,99585.94
2022-09-28T05:40:13.789Z,99581.81
2022-09-28T05:42:40.893Z,99564.06
2022-09-28T05:45:08.787Z,99577.72
2022-09-28T05:47:41.126Z,99575.25
2022-09-28T05:50:11.768Z,99579.53
2022-09-28T05:52:38.942Z,99587.69
2022-09-28T05:55:07.034Z,99587.16
2022-09-28T05:57:34.088Z,99582.22
2022-09-28T06:00:01.032Z,99588.28
2022-09-28T06:02:27.761Z,99587.69
2022-09-28T06:04:55.617Z,99589.59
2022-09-28T06:07:23.298Z,99589.34
2022-09-28T06:09:49.816Z,99587.16
2022-09-28T06:12:33.664Z,99593.41
2022-09-28T06:15:07.025Z,99608.06
2022-09-28T06:17:33.530Z,99608.91
2022-09-28T06:20:18.433Z,99604.81
2022-09-28T06:22:56.372Z,99605.59
2022-09-28T06:25:23.860Z,99611.31
2022-09-28T06:27:55.284Z,99614.34
2022-09-28T06:30:22.351Z,99612.13
2022-09-28T06:32:52.462Z,99616.47
2022-09-28T06:35:19.707Z,99605.44
2022-09-28T06:37:46.277Z,99611.41
2022-09-28T06:40:12.882Z,99612.25
2022-09-28T06:42:39.414Z,99622.06
2022-09-28T06:45:30.797Z,99627.53
2022-09-28T06:48:20.308Z,99625.94
2022-09-28T06:50:47.481Z,99625.47
2022-09-28T06:53:33.852Z,99621.63
2022-09-28T06:56:10.275Z,99629.88
2022-09-28T06:58:37.290Z,99628.78
2022-09-28T07:01:03.993Z,99635.06
2022-09-28T07:03:40.547Z,99629.09
2022-09-28T07:06:16.102Z,99630.47
2022-09-28T07:09:23.312Z,99633.25
2022-09-28T07:12:13.109Z,99628.94
2022-09-28T07:14:50.189Z,99637.19
2022-09-28T07:17:17.091Z,99640.44
2022-09-28T07:19:44.385Z,99634.75
2022-09-28T07:22:18.477Z,99633.97
2022-09-28T07:24:47.769Z,99635.09
2022-09-28T07:27:40.375Z,99644.97
2022-09-28T07:30:29.334Z,99652.06
2022-09-28T07:33:03.528Z,99652.38
2022-09-28T07:35:57.757Z,99648.81
2022-09-28T07:38:27.824Z,99656.53
2022-09-28T07:41:11.710Z,99655.22
2022-09-28T07:43:43.575Z,99664.53
2022-09-28T07:46:12.171Z,99658.63
2022-09-28T07:48:43.691Z,99668.22
2022-09-28T07:51:24.403Z,99657.94
2022-09-28T07:54:15.562Z,99659.31
2022-09-28T07:57:08.198Z,99664.84
2022-09-28T07:59:53.536Z,99662.44
2022-09-28T08:02:38.538Z,99666.75
2022-09-28T08:05:05.758Z,99664.97
2022-09-28T08:07:32.503Z,99663.59
2022-09-28T08:10:04.206Z,99659.03
2022-09-28T08:13:00.541Z,99681.72
2022-09-28T08:15:42.738Z,99681.19
2022-09-28T08:18:36.186Z,99682.28
2022-09-28T08:21:22.752Z,99680.44
2022-09-28T08:23:49.451Z,99684.00
2022-09-28T08:26:16.653Z,99689.72
2022-09-28T08:28:46.634Z,99684.59
2022-09-28T08:31:42.202Z,99700.47
2022-09-28T08:34:28.959Z,99692.31
2022-09-28T08:37:15.001Z,99697.81
2022-09-28T08:40:18.303Z,99697.28
2022-09-28T08:43:38.330Z,99705.78
2022-09-28T08:46:27.265Z,99709.59
2022-09-28T08:49:26.308Z,99710.16
2022-09-28T08:52:27.970Z,99706.06
2022-09-28T08:55:13.773Z,99716.50
2022-09-28T08:57:55.715Z,99715.41
2022-09-28T09:00:33.637Z,99712.69
2022-09-28T09:03:05.431Z,99713.81
2022-09-28T09:06:00.313Z,99717.13
2022-09-28T09:09:11.175Z,99721.22
2022-09-28T09:12:07.628Z,99730.81
2022-09-28T09:15:05.274Z,99729.78
2022-09-28T09:17:58.032Z,99732.81
2022-09-28T09:20:45.255Z,99725.13
2022-09-28T09:23:34.999Z,99730.91
2022-09-28T09:26:22.928Z,99738.81
2022-09-28T09:29:16.474Z,99728.44
2022-09-28T09:31:59.469Z,99741.28
2022-09-28T09:34:55.831Z,99741.59
2022-09-28T09:38:07.688Z,99736.66
2022-09-28T09:41:32.131Z,99739.66
2022-09-28T09:44:43.921Z,99745.13
2022-09-28T09:47:30.691Z,99751.09
2022-09-28T09:50:13.467Z,99747.84
2022-09-28T09:52:55.760Z,99757.09
2022-09-28T09:55:30.318Z,99753.56
2022-09-28T09:58:24.420Z,99743.94
2022-09-28T10:01:09.021Z,99761.47
2022-09-28T10:03:56.208Z,99748.53
2022-09-28T10:06:30.193Z,99751.84
2022-09-28T10:09:16.798Z,99756.50
2022-09-28T10:11:45.872Z,99749.91
2022-09-28T10:14:17.381Z,99750.19
2022-09-28T10:16:51.609Z,99745.28
2022-09-28T10:19:38.172Z,99752.13
2022-09-28T10:22:26.160Z,99743.88
2022-09-28T10:24:58.191Z,99743.28
2022-09-28T10:27:35.945Z,99750.41
2022-09-28T10:30:02.419Z,99738.63
2022-09-28T10:32:46.468Z,99744.03
2022-09-28T10:35:19.031Z,99736.63
2022-09-28T10:38:17.263Z,99747.84
2022-09-28T10:41:00.617Z,99735.75
2022-09-28T10:44:06.932Z,99744.28
2022-09-28T10:46:41.394Z,99749.94
2022-09-28T10:49:17.812Z,99736.78
2022-09-28T10:51:57.139Z,99736.16
2022-09-28T10:54:32.003Z,99744.00
2022-09-28T10:57:00.240Z,99739.19
2022-09-28T10:59:33.494Z,99737.31
2022-09-28T11:02:29.493Z,99745.53
2022-09-28T11:05:06.026Z,99736.56
2022-09-28T11:07:47.858Z,99735.25
2022-09-28T11:10:26.044Z,99740.75
2022-09-28T11:12:56.484Z,99734.31
2022-09-28T11:15:29.622Z,99740.88
2022-09-28T11:17:56.729Z,99743.19
2022-09-28T11:20:27.896Z,99733.00
2022-09-28T11:23:18.264Z,99738.69
2022-09-28T11:25:57.209Z,99728.09
2022-09-28T11:28:28.638Z,99724.22
2022-09-28T11:30:55.787Z,99732.94
2022-09-28T11:33:44.901Z,99733.75
2022-09-28T11:36:58.424Z,99730.97
2022-09-28T11:39:41.239Z,99734.25
2022-09-28T11:42:32.999Z,99737.00
2022-09-28T11:45:15.567Z,99734.63
2022-09-28T11:47:57.262Z,99731.03
2022-09-28T11:50:54.599Z,99732.66
2022-09-28T11:53:42.850Z,99727.03
2022-09-28T11:56:26.669Z,99719.41
2022-09-28T11:59:04.564Z,99725.09
2022-09-28T12:01:46.008Z,99723.91
2022-09-28T12:04:28.455Z,99723.50
2022-09-28T12:07:08.887Z,99716.22
2022-09-28T12:09:43.851Z,99722.06
2022-09-28T12:12:39.772Z,99715.19
2022-09-28T12:15:21.661Z,99721.47
2022-09-28T12:18:13.802Z,99723.19
2022-09-28T12:20:46.338Z,99729.56
2022-09-28T12:23:21.006Z,99724.97
2022-09-28T12:25:55.012Z,99724.97
2022-09-28T12:28:44.010Z,99723.06
2022-09-28T12:31:28.743Z,99730.25
2022-09-28T12:33:55.235Z,99725.69
2022-09-28T12:36:32.471Z,99736.09
2022-09-28T12:39:35.603Z,99729.56
2022-09-28T12:42:41.054Z,99741.75
2022-09-28T12:45:30.967Z,99726.41
2022-09-28T12:48:26.378Z,99726.47
2022-09-28T12:51:09.293Z,99722.56
2022-09-28T12:54:18.853Z,99726.88
2022-09-28T12:57:19.241Z,99722.56
2022-09-28T13:00:06.088Z,99731.66
2022-09-28T13:02:36.903Z,99720.34
2022-09-28T13:05:21.573Z,99723.09
2022-09-28T13:07:59.384Z,99729.22
2022-09-28T13:10:42.695Z,99727.28
2022-09-28T13:13:26.847Z,99731.53
2022-09-28T13:16:17.568Z,99734.34
2022-09-28T13:19:03.543Z,99733.56
2022-09-28T13:22:06.722Z,99725.31
2022-09-28T13:24:38.602Z,99729.41
2022-09-28T13:27:13.064Z,99729.22
2022-09-28T13:29:40.492Z,99723.91
2022-09-28T13:32:08.496Z,99730.81
2022-09-28T13:34:37.904Z,99735.88
2022-09-28T13:37:07.399Z,99731.53
2022-09-28T13:39:43.909Z,99729.44
2022-09-28T13:42:21.883Z,99735.03
2022-09-28T13:45:17.368Z,99738.81
2022-09-28T13:48:11.511Z,99723.94
2022-09-28T13:50:48.462Z,99737.19
2022-09-28T13:53:51.074Z,99736.97
2022-09-28T13:56:20.589Z,99731.25
2022-09-28T13:59:05.198Z,99748.19
2022-09-28T14:01:41.369Z,99747.00
2022-09-28T14:04:23.282Z,99747.34
2022-09-28T14:07:09.853Z,99743.97
2022-09-28T14:09:45.859Z,99748.09
2022-09-28T14:12:33.741Z,99747.75
2022-09-28T14:15:01.325Z,99763.91
2022-09-28T14:17:28.045Z,99742.97
2022-09-28T14:19:56.963Z,99736.50
2022-09-28T14:22:32.387Z,99753.09
2022-09-28T14:25:10.977Z,99752.56
2022-09-28T14:27:37.383Z,99746.38
2022-09-28T14:30:18.768Z,99754.03
2022-09-28T14:33:22.863Z,99760.88
2022-09-28T14:35:58.874Z,99757.78
2022-09-28T14:38:52.050Z,99766.78
2022-09-28T14:41:27.401Z,99766.47
2022-09-28T14:44:03.659Z,99769.66
2022-09-28T14:46:33.000Z,99771.69
2022-09-28T14:49:19.470Z,99761.91
2022-09-28T14:51:55.824Z,99777.88
2022-09-28T14:54:27.109Z,99777.84
2022-09-28T14:56:53.744Z,99780.94
2022-09-28T14:59:30.275Z,99782.97
2022-09-28T15:02:14.959Z,99767.75
2022-09-28T15:05:14.883Z,99779.72
2022-09-28T15:07:51.520Z,99782.19
2022-09-28T15:10:28.173Z,99787.59
2022-09-28T15:12:56.761Z,99796.38
2022-09-28T15:15:43.514Z,99800.88
2022-09-28T15:18:19.096Z,99793.38
2022-09-28T15:20:49.892Z,99801.72
2022-09-28T15:23:46.751Z,99796.28
2022-09-28T15:26:31.230Z,99795.75
2022-09-28T15:28:58.796Z,99793.66
2022-09-28T15:31:27.436Z,99798.56
2022-09-28T15:34:12.727Z,99792.25
2022-09-28T15:36:46.340Z,99794.16
2022-09-28T15:39:12.763Z,99797.41
2022-09-28T15:41:40.552Z,99787.19
2022-09-28T15:44:16.025Z,99804.56
2022-09-28T15:46:45.960Z,99797.53
2022-09-28T15:49:39.104Z,99798.16
2022-09-28T15:52:06.092Z,99803.25
2022-09-28T15:54:43.832Z,99809.28
2022-09-28T15:57:36.974Z,99813.53
2022-09-28T16:00:28.075Z,99813.78
2022-09-28T16:03:06.614Z,99822.88
2022-09-28T16:06:05.511Z,99816.97
2022-09-28T16:08:46.139Z,99814.13
2022-09-28T16:11:36.874Z,99811.94
2022-09-28T16:14:21.132Z,99815.66
2022-09-28T16:16:49.608Z,99816.59
2022-09-28T16:19:30.862Z,99819.56
2022-09-28T16:22:03.860Z,99818.50
2022-09-28T16:24:38.384Z,99825.38
2022-09-28T16:27:08.290Z,99821.22
2022-09-28T16:29:39.663Z,99812.19
2022-09-28T16:32:41.941Z,99824.13
2022-09-28T16:35:11.277Z,99814.38
2022-09-28T16:37:40.803Z,99817.13
2022-09-28T16:40:08.668Z,99816.72
2022-09-28T16:42:36.289Z,99823.50
2022-09-28T16:45:07.769Z,99831.06
2022-09-28T16:47:34.737Z,99818.47
2022-09-28T16:50:03.937Z,99833.25
2022-09-28T16:52:49.189Z,99826.72
2022-09-28T16:55:38.839Z,99828.94
2022-09-28T16:58:04.564Z,99828.34
2022-09-28T17:00:31.732Z,99834.44
2022-09-28T17:02:58.456Z,99838.28
2022-09-28T17:05:25.417Z,99840.69
2022-09-28T17:08:01.597Z,99839.41
2022-09-28T17:13:39.301Z,99846.53
2022-09-28T17:16:10.956Z,99850.38
2022-09-28T17:18:38.952Z,99854.97
2022-09-28T17:21:16.799Z,99847.56
2022-09-28T17:23:44.015Z,99856.53
2022-09-28T17:26:33.562Z,99866.06
2022-09-28T17:29:01.678Z,99859.66
2022-09-28T17:31:29.827Z,99856.38
2022-09-28T17:33:56.545Z,99852.84
2022-09-28T17:36:23.543Z,99853.34
2022-09-28T17:38:51.706Z,99862.50
2022-09-28T17:41:20.996Z,99871.47
2022-09-28T17:43:48.099Z,99865.75
2022-09-28T17:46:53.789Z,99861.13
2022-09-28T17:49:20.272Z,99867.47
2022-09-28T17:51:46.905Z,99866.09
2022-09-28T17:54:16.598Z,99865.09
2022-09-28T17:56:43.079Z,99862.31
2022-09-28T17:59:13.424Z,99875.00
2022-09-28T18:01:40.604Z,99876.69
2022-09-28T18:04:08.647Z,99877.25
2022-09-28T18:06:42.182Z,99873.94
2022-09-28T18:09:13.684Z,99873.41
2022-09-28T18:11:43.169Z,99874.78
2022-09-28T18:14:11.296Z,99875.38
2022-09-28T18:16:38.015Z,99884.47
2022-09-28T18:19:04.584Z,99873.47
2022-09-28T18:21:32.538Z,99882.91
2022-09-28T18:23:59.151Z,99880.13
2022-09-28T18:26:25.685Z,99885.13
2022-09-28T18:28:55.002Z,99887.91
2022-09-28T18:31:21.680Z,99886.81
2022-09-28T18:33:48.569Z,99884.13
2022-09-28T18:36:15.113Z,99891.53
2022-09-28T18:38:41.680Z,99882.00
2022-09-28T18:41:10.249Z,99890.81
2022-09-28T18:43:37.525Z,99888.06
2022-09-28T18:46:09.518Z,99892.75
2022-09-28T18:48:37.097Z,99893.59
2022-09-28T18:51:07.395Z,99890.84
2022-09-28T18:53:34.662Z,99896.06
2022-09-28T18:56:09.329Z,99896.41
2022-09-28T18:58:37.540Z,99892.03
2022-09-28T19:01:32.633Z,99898.03
2022-09-28T19:04:04.400Z,99897.00
2022-09-28T19:06:31.796Z,99899.19
2022-09-28T19:08:58.669Z,99893.75
2022-09-28T19:11:26.847Z,99895.41
2022-09-28T19:13:54.691Z,99905.84
2022-09-28T19:16:28.301Z,99903.94
2022-09-28T19:18:58.539Z,99907.00
2022-09-28T19:21:25.460Z,99898.25
2022-09-28T19:23:53.540Z,99910.84
2022-09-28T19:26:23.548Z,99910.31
2022-09-28T19:28:50.388Z,99907.03
2022-09-28T19:31:17.427Z,99914.44
2022-09-28T19:33:46.405Z,99919.94
2022-09-28T19:36:18.156Z,99915.28
2022-09-28T19:38:45.536Z,99913.91
2022-09-28T19:41:39.015Z,99921.31
2022-09-28T19:44:24.375Z,99916.94
2022-09-28T19:46:58.416Z,99909.31
2022-09-28T19:49:26.993Z,99924.34
2022-09-28T19:52:12.290Z,99926.28
2022-09-28T19:54:41.112Z,99919.44
2022-09-28T19:57:08.441Z,99919.16
2022-09-28T19:59:36.604Z,99921.91
2022-09-28T20:02:04.534Z,99917.53
2022-09-28T20:04:31.038Z,99922.72
2022-09-28T20:06:57.693Z,99923.53
2022-09-28T20:09:24.203Z,99927.09
2022-09-28T20:11:51.804Z,99927.09
2022-09-28T20:14:23.437Z,99924.09
2022-09-28T20:16:52.413Z,99931.75
2022-09-28T20:19:21.432Z,99929.28
2022-09-28T20:21:48.486Z,99928.47
2022-09-28T20:24:16.473Z,99929.81
2022-09-28T20:26:44.294Z,99932.31
2022-09-28T20:29:10.815Z,99928.47
2022-09-28T20:31:37.476Z,99935.56
2022-09-28T20:34:04.996Z,99935.81
2022-09-28T20:36:31.999Z,99933.66
2022-09-28T20:39:02.862Z,99928.44
2022-09-28T20:41:36.777Z,99936.09
2022-09-28T20:44:06.170Z,99929.53
2022-09-28T20:46:36.838Z,99925.72
2022-09-28T20:49:04.528Z,99921.31
2022-09-28T20:51:31.891Z,99923.50
2022-09-28T20:53:59.466Z,99922.41
2022-09-28T20:56:40.301Z,99933.34
2022-09-28T20:59:08.005Z,99924.59
2022-09-28T21:01:34.940Z,99926.50
2022-09-28T21:04:03.034Z,99932.22
2022-09-28T21:06:32.565Z,99928.38
2022-09-28T21:08:59.080Z,99928.69
2022-09-28T21:11:27.349Z,99931.66
2022-09-28T21:13:58.851Z,99936.56
2022-09-28T21:16:27.219Z,99939.56
2022-09-28T21:18:53.727Z,99927.78
2022-09-28T21:21:21.589Z,99930.50
2022-09-28T21:23:48.482Z,99928.56
2022-09-28T21:26:26.424Z,99936.53
2022-09-28T21:28:57.805Z,99934.56
2022-09-28T21:31:28.888Z,99936.53
2022-09-28T21:33:56.565Z,99926.66
2022-09-28T21:36:23.039Z,99933.25
2022-09-28T21:38:49.600Z,99926.34
2022-09-28T21:41:16.392Z,99932.91
2022-09-28T21:43:42.849Z,99929.38
2022-09-28T21:46:10.405Z,99943.00
2022-09-28T21:48:36.977Z,99942.19
2022-09-28T21:51:06.189Z,99949.56
2022-09-28T21:53:35.504Z,99953.38
2022-09-28T21:56:03.140Z,99946.25
2022-09-28T21:58:33.480Z,99952.50
2022-09-28T22:01:04.703Z,99952.25
2022-09-28T22:03:32.265Z,99952.81
2022-09-28T22:05:58.929Z,99957.69
2022-09-28T22:08:25.815Z,99951.66
2022-09-28T22:11:11.166Z,99958.19
2022-09-28T22:13:43.538Z,99957.06
2022-09-28T22:16:11.381Z,99963.00
2022-09-28T22:18:38.121Z,99964.72
2022-09-28T22:21:07.333Z,99963.81
2022-09-28T22:23:34.280Z,99964.66
2022-09-28T22:26:07.018Z,99970.94
2022-09-28T22:28:34.536Z,99963.44
2022-09-28T22:31:01.368Z,99970.59
2022-09-28T22:33:28.084Z,99969.72
2022-09-28T22:35:54.996Z,99972.75
2022-09-28T22:38:23.293Z,99971.31
2022-09-28T22:40:55.401Z,99975.13
2022-09-28T22:43:23.752Z,99972.94
2022-09-28T22:45:50.580Z,99974.84
2022-09-28T22:48:17.060Z,99967.78
2022-09-28T22:50:50.863Z,99977.03
2022-09-28T22:53:18.241Z,99974.25
2022-09-28T22:55:44.831Z,99973.41
2022-09-28T22:58:11.727Z,99964.88
2022-09-28T23:00:38.496Z,99968.69
2022-09-28T23:03:05.189Z,99975.28
2022-09-28T23:05:31.720Z,99969.75
2022-09-28T23:07:58.236Z,99970.00
2022-09-28T23:10:24.680Z,99969.75
2022-09-28T23:12:53.933Z,99976.78
2022-09-28T23:15:21.566Z,99971.81
2022-09-28T23:17:54.435Z,99969.84
2022-09-28T23:20:21.760Z,99974.25
2022-09-28T23:22:48.843Z,99971.81
2022-09-28T23:25:17.022Z,99970.16
2022-09-28T23:27:47.715Z,99981.59
2022-09-28T23:30:16.106Z,99976.66
2022-09-28T23:32:42.717Z,99971.75
2022-09-28T23:35:10.457Z,99975.00
2022-09-28T23:37:37.585Z,99975.84
2022-09-28T23:40:05.900Z,99974.41
2022-09-28T23:42:33.285Z,99971.38
2022-09-28T23:44:59.753Z,99978.19
2022-09-28T23:47:26.248Z,99979.81
2022-09-28T23:49:52.761Z,99972.75
2022-09-28T23:52:19.250Z,99975.94
2022-09-28T23:54:45.732Z,99975.34
2022-09-28T23:57:12.251Z,99972.97
2022-09-28T23:59:38.855Z,99971.56
